Portada
METAR-TAF:

METAR-TAF

Aeroports :

Aeroport de Cabinda

Cabinda, Angola

latitud: 5-35-50S, longitud: 12-11-17E, altitud: 20 m

Observació

L'informe es va fer fa 7 hores i 26 minuts, a les 15:00 UTC
Vent 8 kt del Oest/Sud-Oest
Temperatura 28°C
Humitat 70%
Pressió 1010 hPa
Visibilitat 10 km o més
Escasses núvols a una alçada de 2000 ft

METAR: FNCA 291500Z 25008KT 9999 FEW020 28/22 Q1010

Hora: 23:26 (22:26 UTC)

Pronòstic

L'informe es va fer fa 11 hores i 26 minuts, a les 11:00 UTC
Pronòstic vàlid del 29 a les 12 UTC al 29 a les 24 UTC
Vent 8 kt del Sud
Visibilitat: 9000 m
Escasses núvols a una alçada de 2500 ft
Cel ennuvolat a una alçada de 4000 ft
Temporalment
l' 29 a les 13 UTC al 29 a les 17 UTC
Vent 9 kt del Sud/Sud-Oest
Visibilitat 10 km o més
Escasses núvols a una alçada de 1800 ft

TAF: FNCA 291100Z 2912/2924 18008KT 9000 FEW025 BKN040 TEMPO 2913/2917 20009KT 9999 FEW018

Observacions i pronòstics meteorològics de més de 4000 aeroports (METAR i TAF).

Les estacions disponibles són els punts grocs i vermells al mapa.

Posi el ratolí al punt desitjat per veure el nom de l'estació.

Feu clic per veure les observacions i els pronòstics meteorològics.

Per canviar el mapa: feu clic els botons verds amb una creu de color negre per apropar; al botó verd amb un guió per allunyar la imatge; o en les fletxes verdes per a mapes adjacents.


METAR-TAF: